CEFAS Endeavour — VQHF3 — position and weather

sailwx.info

Track history (hours):
 
Tides and Currents Weather Stations Pressure Air Temp Water Temp Dewpoint Dewpoint Depression Visibility Wind Speed Wind Dir Waves Ship Positions

Oceanographic research ship CEFAS Endeavour (UK)

Detailed information on ship capabilities available from University of Delaware's Ocean Information Center.

Last reported at 2017-Apr-24 18:10 UTC. Time now 2017-Apr-28 23:51 UTC.
Position N 50°16' W 001°31'.

Length 74 m; draft 5.4 m.

Type: Ship. MMSI: 235005270.

Date/timePositionNaut miles runAvg speedWind from/ knotsBaromVisibWave heightAir tempDewpointWater temp
2017-Apr-24 18:10N 50°16' W 001°31'0 2.3
2017-Apr-24 18:00N 50°16' W 001°30'0 0.7
2017-Apr-24 17:28N 50°15' W 001°30'1 0.6
2017-Apr-24 16:31N 50°15' W 001°29'0 0.2
2017-Apr-24 16:27N 50°15' W 001°29'1 1.3
2017-Apr-24 15:41N 50°15' W 001°28'0 0.0
2017-Apr-24 15:29N 50°15' W 001°28'13 1.4
2017-Apr-24 06:14N 50°13' W 001°08'1 3.3
2017-Apr-24 06:00N 50°13' W 001°08'2 2.4
2017-Apr-24 05:15N 50°12' W 001°10'1 4.1
2017-Apr-24 05:00N 50°12' W 001°12'1 1.9
2017-Apr-24 04:31N 50°13' W 001°10'3 5.7
2017-Apr-24 04:00N 50°13' W 001°06'1 0.3
2017-Apr-24 02:21N 50°13' W 001°06'4 2.9
2017-Apr-24 01:08N 50°13' W 001°12'2 8.1
2017-Apr-24 00:56N 50°13' W 001°09'3 6.5
2017-Apr-24 00:28N 50°13' W 001°05'3 6.0
2017-Apr-24 00:00N 50°13' W 001°09'2 4.0
2017-Apr-23 23:30N 50°13' W 001°12'4 7.5
2017-Apr-23 23:00N 50°13' W 001°07'1 2.2
2017-Apr-23 22:30N 50°13' W 001°05'5 4.7
2017-Apr-23 21:28N 50°14' W 001°13'3 6.1
2017-Apr-23 20:55N 50°14' W 001°07'3 3.0
2017-Apr-23 19:55N 50°14' W 001°12'2 3.8
2017-Apr-23 19:30N 50°14' W 001°09'3 5.9
2017-Apr-23 19:00N 50°14' W 001°05'4 8.1
2017-Apr-23 18:28N 50°14' W 001°12'1 0.4
2017-Apr-23 14:52N 50°14' W 001°10'29 1.6
2017-Apr-22 20:57N 50°26' W 000°29'3 2.8
2017-Apr-22 19:58N 50°27' W 000°25'0 0.3
2017-Apr-22 19:26N 50°27' W 000°25'0 0.3
2017-Apr-22 18:56N 50°27' W 000°25'1 1.3
2017-Apr-22 18:30N 50°27' W 000°26'0 0.5
2017-Apr-22 18:00N 50°26' W 000°26'5 5.3
2017-Apr-22 17:06N 50°28' W 000°19'111.1
2017-Apr-22 17:00N 50°28' W 000°17'611.4
2017-Apr-22 16:27N 50°29' W 000°07'511.8
2017-Apr-22 16:00N 50°30' E 000°01'2812.9
2017-Apr-22 13:49N 50°36' E 000°45'7 0.6
2017-Apr-22 02:02N 50°35' E 000°56'9 6.5
2017-Apr-22 00:41N 50°40' E 001°08'2 7.5
2017-Apr-22 00:26N 50°39' E 001°05'1 1.7
2017-Apr-21 23:41N 50°37' E 001°05'0 0.1
2017-Apr-21 23:26N 50°37' E 001°05'1 1.3
2017-Apr-21 22:20N 50°37' E 001°03'0 1.5
2017-Apr-21 22:00N 50°37' E 001°04'1 2.7
2017-Apr-21 21:27N 50°36' E 001°02'2 1.6
2017-Apr-21 20:30N 50°34' E 001°01'1 1.1
2017-Apr-21 19:36N 50°34' E 000°60'0 2.3
2017-Apr-21 19:29N 50°34' E 000°60'0 1.0
2017-Apr-21 19:00N 50°34' E 000°59'1 1.3
2017-Apr-21 18:30N 50°33' E 000°59'1 1.6
2017-Apr-21 18:01N 50°33' E 000°57'1 2.3
2017-Apr-21 17:30N 50°33' E 000°56'0 0.8
2017-Apr-21 17:01N 50°33' E 000°56'1 1.9
2017-Apr-21 16:30N 50°33' E 000°57'0 0.8
2017-Apr-21 16:00N 50°33' E 000°58'1 2.0
2017-Apr-21 15:31N 50°33' E 000°59'1 1.6
2017-Apr-21 15:01N 50°34' E 001°00'1 1.9
2017-Apr-21 14:30N 50°34' E 000°59'2 2.0
2017-Apr-21 13:31N 50°34' E 000°56'1 1.4
2017-Apr-21 13:01N 50°34' E 000°55'1 1.8
2017-Apr-21 12:30N 50°34' E 000°56'1 2.4
2017-Apr-21 11:59N 50°34' E 000°58'1 2.2
2017-Apr-21 11:30N 50°34' E 000°60'1 1.1
2017-Apr-21 10:48N 50°34' E 001°01'1 1.8
2017-Apr-21 10:30N 50°35' E 001°02'2 2.5
2017-Apr-21 09:46N 50°35' E 000°59'1 2.4
2017-Apr-21 09:24N 50°35' E 000°57'15 0.9
2017-Apr-20 16:12N 50°48' E 001°09'1010.5
2017-Apr-20 15:13N 50°58' E 001°07'412.2
2017-Apr-20 14:53N 51°01' E 001°10'3 4.5
2017-Apr-20 14:12N 51°04' E 001°12'810.6
2017-Apr-20 13:29N 50°57' E 001°07'1010.1
2017-Apr-20 12:28N 50°47' E 001°10'15 0.6
2017-Apr-19 11:38N 51°00' E 001°20'213.4
2017-Apr-19 11:30N 51°02' E 001°22'713.7
2017-Apr-19 11:00N 51°06' E 001°30'613.0
2017-Apr-19 10:30N 51°11' E 001°37'612.3
2017-Apr-19 10:00N 51°16' E 001°41'611.7
2017-Apr-19 09:30N 51°22' E 001°43'611.2
2017-Apr-19 09:00N 51°28' E 001°45'510.9
2017-Apr-19 08:30N 51°33' E 001°46'511.0
2017-Apr-19 08:00N 51°38' E 001°45'510.4
2017-Apr-19 07:30N 51°44' E 001°46'510.4
2017-Apr-19 07:00N 51°49' E 001°49'510.6
2017-Apr-19 06:30N 51°51' E 001°57'510.4
2017-Apr-19 06:00N 51°53' E 002°04'5 9.1
2017-Apr-19 05:29N 51°57' E 002°07'510.7
2017-Apr-19 05:00N 52°02' E 002°04'611.2
2017-Apr-19 04:30N 52°07' E 002°00'510.5
2017-Apr-19 04:00N 52°12' E 001°58'  
Track history (hours):
 
Tides and Currents Weather Stations Pressure Air Temp Water Temp Dewpoint Dewpoint Depression Visibility Wind Speed Wind Dir Waves Ship Positions

Oceanographic research ship CEFAS Endeavour (UK)

Detailed information on ship capabilities available from University of Delaware's Ocean Information Center.

Last reported at 2017-Apr-24 18:10 UTC. Time now 2017-Apr-28 23:51 UTC.
Position N 50°16' W 001°31'.

Length 74 m; draft 5.4 m.

Type: Ship. MMSI: 235005270.

Date/timePositionNaut miles runAvg speedWind from/ knotsBaromVisibWave heightAir tempDewpointWater temp
2017-Apr-24 18:10N 50°16' W 001°31'0 2.3
2017-Apr-24 18:00N 50°16' W 001°30'0 0.7
2017-Apr-24 17:28N 50°15' W 001°30'1 0.6
2017-Apr-24 16:31N 50°15' W 001°29'0 0.2
2017-Apr-24 16:27N 50°15' W 001°29'1 1.3
2017-Apr-24 15:41N 50°15' W 001°28'0 0.0
2017-Apr-24 15:29N 50°15' W 001°28'13 1.4
2017-Apr-24 06:14N 50°13' W 001°08'1 3.3
2017-Apr-24 06:00N 50°13' W 001°08'2 2.4
2017-Apr-24 05:15N 50°12' W 001°10'1 4.1
2017-Apr-24 05:00N 50°12' W 001°12'1 1.9
2017-Apr-24 04:31N 50°13' W 001°10'3 5.7
2017-Apr-24 04:00N 50°13' W 001°06'1 0.3
2017-Apr-24 02:21N 50°13' W 001°06'4 2.9
2017-Apr-24 01:08N 50°13' W 001°12'2 8.1
2017-Apr-24 00:56N 50°13' W 001°09'3 6.5
2017-Apr-24 00:28N 50°13' W 001°05'3 6.0
2017-Apr-24 00:00N 50°13' W 001°09'2 4.0
2017-Apr-23 23:30N 50°13' W 001°12'4 7.5
2017-Apr-23 23:00N 50°13' W 001°07'1 2.2
2017-Apr-23 22:30N 50°13' W 001°05'5 4.7
2017-Apr-23 21:28N 50°14' W 001°13'3 6.1
2017-Apr-23 20:55N 50°14' W 001°07'3 3.0
2017-Apr-23 19:55N 50°14' W 001°12'2 3.8
2017-Apr-23 19:30N 50°14' W 001°09'3 5.9
2017-Apr-23 19:00N 50°14' W 001°05'4 8.1
2017-Apr-23 18:28N 50°14' W 001°12'1 0.4
2017-Apr-23 14:52N 50°14' W 001°10'29 1.6
2017-Apr-22 20:57N 50°26' W 000°29'3 2.8
2017-Apr-22 19:58N 50°27' W 000°25'0 0.3
2017-Apr-22 19:26N 50°27' W 000°25'0 0.3
2017-Apr-22 18:56N 50°27' W 000°25'1 1.3
2017-Apr-22 18:30N 50°27' W 000°26'0 0.5
2017-Apr-22 18:00N 50°26' W 000°26'5 5.3
2017-Apr-22 17:06N 50°28' W 000°19'111.1
2017-Apr-22 17:00N 50°28' W 000°17'611.4
2017-Apr-22 16:27N 50°29' W 000°07'511.8
2017-Apr-22 16:00N 50°30' E 000°01'2812.9
2017-Apr-22 13:49N 50°36' E 000°45'7 0.6
2017-Apr-22 02:02N 50°35' E 000°56'9 6.5
2017-Apr-22 00:41N 50°40' E 001°08'2 7.5
2017-Apr-22 00:26N 50°39' E 001°05'1 1.7
2017-Apr-21 23:41N 50°37' E 001°05'0 0.1
2017-Apr-21 23:26N 50°37' E 001°05'1 1.3
2017-Apr-21 22:20N 50°37' E 001°03'0 1.5
2017-Apr-21 22:00N 50°37' E 001°04'1 2.7
2017-Apr-21 21:27N 50°36' E 001°02'2 1.6
2017-Apr-21 20:30N 50°34' E 001°01'1 1.1
2017-Apr-21 19:36N 50°34' E 000°60'0 2.3
2017-Apr-21 19:29N 50°34' E 000°60'0 1.0
2017-Apr-21 19:00N 50°34' E 000°59'1 1.3
2017-Apr-21 18:30N 50°33' E 000°59'1 1.6
2017-Apr-21 18:01N 50°33' E 000°57'1 2.3
2017-Apr-21 17:30N 50°33' E 000°56'0 0.8
2017-Apr-21 17:01N 50°33' E 000°56'1 1.9
2017-Apr-21 16:30N 50°33' E 000°57'0 0.8
2017-Apr-21 16:00N 50°33' E 000°58'1 2.0
2017-Apr-21 15:31N 50°33' E 000°59'1 1.6
2017-Apr-21 15:01N 50°34' E 001°00'1 1.9
2017-Apr-21 14:30N 50°34' E 000°59'2 2.0
2017-Apr-21 13:31N 50°34' E 000°56'1 1.4
2017-Apr-21 13:01N 50°34' E 000°55'1 1.8
2017-Apr-21 12:30N 50°34' E 000°56'1 2.4
2017-Apr-21 11:59N 50°34' E 000°58'1 2.2
2017-Apr-21 11:30N 50°34' E 000°60'1 1.1
2017-Apr-21 10:48N 50°34' E 001°01'1 1.8
2017-Apr-21 10:30N 50°35' E 001°02'2 2.5
2017-Apr-21 09:46N 50°35' E 000°59'1 2.4
2017-Apr-21 09:24N 50°35' E 000°57'15 0.9
2017-Apr-20 16:12N 50°48' E 001°09'1010.5
2017-Apr-20 15:13N 50°58' E 001°07'412.2
2017-Apr-20 14:53N 51°01' E 001°10'3 4.5
2017-Apr-20 14:12N 51°04' E 001°12'810.6
2017-Apr-20 13:29N 50°57' E 001°07'1010.1
2017-Apr-20 12:28N 50°47' E 001°10'15 0.6
2017-Apr-19 11:38N 51°00' E 001°20'213.4
2017-Apr-19 11:30N 51°02' E 001°22'713.7
2017-Apr-19 11:00N 51°06' E 001°30'613.0
2017-Apr-19 10:30N 51°11' E 001°37'612.3
2017-Apr-19 10:00N 51°16' E 001°41'611.7
2017-Apr-19 09:30N 51°22' E 001°43'611.2
2017-Apr-19 09:00N 51°28' E 001°45'510.9
2017-Apr-19 08:30N 51°33' E 001°46'511.0
2017-Apr-19 08:00N 51°38' E 001°45'510.4
2017-Apr-19 07:30N 51°44' E 001°46'510.4
2017-Apr-19 07:00N 51°49' E 001°49'510.6
2017-Apr-19 06:30N 51°51' E 001°57'510.4
2017-Apr-19 06:00N 51°53' E 002°04'5 9.1
2017-Apr-19 05:29N 51°57' E 002°07'510.7
2017-Apr-19 05:00N 52°02' E 002°04'611.2
2017-Apr-19 04:30N 52°07' E 002°00'510.5
2017-Apr-19 04:00N 52°12' E 001°58'  

Dump ship's entire track history